OIBL  Bandar Lengeh  Airport

Bandar Lengeh, Iran

Add Bookmark
ICAO OIBL
IATA BDH
Type Airport
Status Operational
Latitude
26° 31' 55" N
26.532000
Longitude
54° 49' 29" E
54.824799
Local (GMT +4.5 ) UTC
Aug 28, 2016 04:33 pm Aug 28, 2016 12:03
Sunrise-Sunset Local UTC
Begin Civil Twilight 06:04 am 01:34
Sunrise 06:27 am 01:57
Sunset 07:15 pm 14:45
End Civil Twilight 07:39 pm 15:09
VFR
VFR
MVFR
MVFR
IFR
IFR
LIFR
LIFR
Unknown
Unavailable

Current Weather

METAR Observed MVFR
OIBL 281100Z 21008KT 5000 HZ NSC 37/26 Q1002 Sun, Aug 28, 2016 @ 11:00 UTC
(1 Hour, 3 Minutes ago)
Marginal Visual Flight Rules
Wind Visibility Conditions
210° at 8 knots (15 kph) 5,005 m
  • Haze
Temperatures Readings Precipitation
Current Temp
37°C
99°F
Dewpoint
26°C
79°F
Heat Index
48°C
118°
Humidity 53%
Altimeter 29.59" Hg
Sea Level Pressure 1,002 mb
Field Elevation
14 m
46 ft
None Recorded

Additional weather within a 92.6km radius of OIBL

Map ICAO Location
OIBS 74.8km S/SW (202°)
OIBA 75.9km S/SE (164°)
VFR
VFR
MVFR
MVFR
IFR
IFR
LIFR
LIFR
Unknown
Unavailable
-
-

CheckWX.com is intended as a tool to help pilots better visualize weather data. It is not intended as a substitute for an official weather briefing obtained from a Flight Service Station. CheckWX.com does not meet the FAA requirements for an official pre-flight weather briefing. Therefore, it's important that pilots still call and obtain an official FSS pre-flight weather briefing.

© 2007-2016 CheckWX.com
12:03:58 UTC